createdAt,value
2019-01-04T00:01:35.784Z,94702.47
2019-01-04T00:04:08.978Z,94722.07
2019-01-04T00:06:39.589Z,94703.53
2019-01-04T00:09:10.456Z,94708.44
2019-01-04T00:11:41.174Z,94708.69
2019-01-04T00:14:11.458Z,94718.18
2019-01-04T00:16:42.444Z,94715.02
2019-01-04T00:19:13.099Z,94716.95
2019-01-04T00:21:43.432Z,94716.69
2019-01-04T00:24:14.055Z,94719.55
2019-01-04T00:26:44.660Z,94727.00
2019-01-04T00:29:15.423Z,94718.25
2019-01-04T00:31:46.034Z,94724.15
2019-01-04T00:34:16.312Z,94719.31
2019-01-04T00:36:47.179Z,94727.91
2019-01-04T00:39:17.694Z,94735.34
2019-01-04T00:41:48.456Z,94734.47
2019-01-04T00:44:19.213Z,94732.04
2019-01-04T00:46:50.217Z,94732.98
2019-01-04T00:49:20.483Z,94730.41
2019-01-04T00:51:51.098Z,94732.29
2019-01-04T00:54:21.468Z,94738.44
2019-01-04T00:57:22.956Z,94731.63
2019-01-04T01:00:30.105Z,94735.25
2019-01-04T01:03:44.403Z,94736.19
2019-01-04T01:06:47.273Z,94739.98
2019-01-04T01:10:06.807Z,94736.73
2019-01-04T01:13:17.424Z,94735.03
2019-01-04T01:16:27.566Z,94733.23
2019-01-04T01:19:34.324Z,94736.94
2019-01-04T01:22:44.341Z,94741.31
2019-01-04T01:26:00.332Z,94736.58
2019-01-04T01:29:16.960Z,94734.36
2019-01-04T01:32:22.768Z,94736.80
2019-01-04T01:35:39.782Z,94753.47
2019-01-04T01:39:09.151Z,94726.30
2019-01-04T01:42:18.178Z,94729.75
2019-01-04T01:45:31.649Z,94725.66
2019-01-04T01:48:36.068Z,94727.06
2019-01-04T01:51:31.648Z,94726.39
2019-01-04T01:54:01.925Z,94732.66
2019-01-04T01:56:32.523Z,94725.67
2019-01-04T01:59:03.306Z,94727.78
2019-01-04T02:01:33.654Z,94722.44
2019-01-04T02:04:04.465Z,94731.97
2019-01-04T02:06:35.175Z,94725.56
2019-01-04T02:09:08.766Z,94736.49
2019-01-04T02:11:39.300Z,94741.56
2019-01-04T02:14:09.804Z,94726.84
2019-01-04T02:16:40.763Z,94720.27
2019-01-04T02:19:11.410Z,94723.98
2019-01-04T02:21:41.668Z,94728.22
2019-01-04T02:24:12.281Z,94727.64
2019-01-04T02:26:43.101Z,94728.72
2019-01-04T02:29:13.747Z,94742.75
2019-01-04T02:31:44.147Z,94739.57
2019-01-04T02:34:15.075Z,94734.50
2019-01-04T02:36:45.362Z,94733.42
2019-01-04T02:39:16.014Z,94745.22
2019-01-04T02:41:46.686Z,94738.52
2019-01-04T02:44:18.415Z,94751.64
2019-01-04T02:46:49.086Z,94747.38
2019-01-04T02:49:19.609Z,94737.76
2019-01-04T02:51:49.954Z,94736.75
2019-01-04T02:54:20.588Z,94743.19
2019-01-04T02:56:50.882Z,94745.97
2019-01-04T02:59:21.684Z,94739.80
2019-01-04T03:01:52.456Z,94737.30
2019-01-04T03:04:23.045Z,94746.77
2019-01-04T03:06:53.437Z,94747.94
2019-01-04T03:09:24.275Z,94756.20
2019-01-04T03:11:54.709Z,94770.14
2019-01-04T03:14:25.031Z,94746.16
2019-01-04T03:16:55.628Z,94753.70
2019-01-04T03:19:26.027Z,94756.34
2019-01-04T03:21:56.308Z,94767.50
2019-01-04T03:24:26.861Z,94761.73
2019-01-04T03:26:57.654Z,94772.92
2019-01-04T03:29:28.351Z,94761.77
2019-01-04T03:31:58.737Z,94767.56
2019-01-04T03:34:29.147Z,94769.18
2019-01-04T03:36:59.727Z,94775.51
2019-01-04T03:39:30.036Z,94765.67
2019-01-04T03:42:00.973Z,94761.10
2019-01-04T03:44:31.347Z,94767.41
2019-01-04T03:47:01.706Z,94773.53
2019-01-04T03:49:32.311Z,94769.71
2019-01-04T03:52:03.049Z,94769.83
2019-01-04T03:54:33.801Z,94778.55
2019-01-04T03:57:04.087Z,94789.22
2019-01-04T03:59:34.907Z,94779.58
2019-01-04T04:02:05.613Z,94792.63
2019-01-04T04:04:36.168Z,94793.66
2019-01-04T04:07:06.442Z,94793.01
2019-01-04T04:09:36.997Z,94794.89
2019-01-04T04:12:07.360Z,94799.61
2019-01-04T04:14:37.993Z,94803.89
2019-01-04T04:17:08.655Z,94799.64
2019-01-04T04:19:39.498Z,94801.52
2019-01-04T04:22:09.848Z,94802.95
2019-01-04T04:24:40.424Z,94806.09
2019-01-04T04:27:10.752Z,94809.77
2019-01-04T04:29:41.722Z,94810.39
2019-01-04T04:32:12.210Z,94808.56
2019-01-04T04:34:42.758Z,94807.79
2019-01-04T04:37:13.411Z,94808.97
2019-01-04T04:39:44.311Z,94808.13
2019-01-04T04:42:14.600Z,94807.70
2019-01-04T04:44:45.492Z,94814.06
2019-01-04T04:47:16.141Z,94816.78
2019-01-04T04:49:46.597Z,94822.03
2019-01-04T04:52:16.933Z,94817.23
2019-01-04T04:54:47.373Z,94821.00
2019-01-04T04:57:18.055Z,94823.22
2019-01-04T04:59:48.876Z,94825.47
2019-01-04T05:02:19.149Z,94826.63
2019-01-04T05:04:49.931Z,94831.20
2019-01-04T05:07:20.599Z,94525.51
2019-01-04T05:09:50.919Z,94832.38
2019-01-04T05:12:21.440Z,94833.59
2019-01-04T05:14:52.016Z,94832.41
2019-01-04T05:17:22.294Z,94842.30
2019-01-04T05:19:52.600Z,94840.91
2019-01-04T05:22:23.219Z,94846.49
2019-01-04T05:24:53.524Z,94845.48
2019-01-04T05:27:24.186Z,94851.92
2019-01-04T05:29:54.938Z,94850.66
2019-01-04T05:32:25.734Z,94856.77
2019-01-04T05:34:56.034Z,94868.00
2019-01-04T05:37:26.942Z,94874.52
2019-01-04T05:39:57.565Z,94877.55
2019-01-04T05:42:27.962Z,94874.27
2019-01-04T05:44:58.657Z,94887.17
2019-01-04T05:47:29.142Z,94898.53
2019-01-04T05:49:59.508Z,94891.41
2019-01-04T05:52:29.983Z,94904.45
2019-01-04T05:55:00.642Z,94904.03
2019-01-04T05:57:30.927Z,94906.32
2019-01-04T06:00:02.059Z,94906.84
2019-01-04T06:02:32.545Z,94922.00
2019-01-04T06:05:03.096Z,94916.45
2019-01-04T06:07:34.323Z,94920.03
2019-01-04T06:10:04.822Z,94915.17
2019-01-04T06:12:35.402Z,94935.20
2019-01-04T06:15:06.425Z,94937.28
2019-01-04T06:17:37.034Z,94602.56
2019-01-04T06:20:07.414Z,94949.61
2019-01-04T06:22:38.204Z,94947.94
2019-01-04T06:25:09.495Z,94959.98
2019-01-04T06:27:40.068Z,94957.91
2019-01-04T06:30:10.833Z,94964.55
2019-01-04T06:32:41.741Z,94974.91
2019-01-04T06:35:12.432Z,94963.91
2019-01-04T06:37:42.904Z,94967.55
2019-01-04T06:40:13.493Z,94975.45
2019-01-04T06:42:44.453Z,94975.73
2019-01-04T06:45:14.744Z,94983.70
2019-01-04T06:47:46.923Z,94984.63
2019-01-04T06:50:17.311Z,94986.13
2019-01-04T06:52:48.027Z,94993.63
2019-01-04T06:55:49.351Z,94998.03
2019-01-04T06:58:20.057Z,95007.16
2019-01-04T07:00:50.544Z,95011.05
2019-01-04T07:03:21.445Z,95014.08
2019-01-04T07:05:51.818Z,95015.39
2019-01-04T07:08:22.455Z,95023.97
2019-01-04T07:10:53.309Z,95032.08
2019-01-04T07:13:23.870Z,95039.42
2019-01-04T07:15:54.146Z,95045.44
2019-01-04T07:18:24.891Z,95051.28
2019-01-04T07:20:55.375Z,95049.69
2019-01-04T07:23:25.925Z,95056.91
2019-01-04T07:25:56.582Z,95061.69
2019-01-04T07:28:27.283Z,95069.16
2019-01-04T07:30:57.586Z,95074.69
2019-01-04T07:33:28.505Z,95079.53
2019-01-04T07:35:58.911Z,95084.14
2019-01-04T07:38:29.754Z,95087.33
2019-01-04T07:41:01.528Z,95088.88
2019-01-04T07:43:32.307Z,95086.75
2019-01-04T07:46:02.926Z,95098.39
2019-01-04T07:48:33.433Z,95092.70
2019-01-04T07:51:03.792Z,95100.63
2019-01-04T07:53:34.376Z,95096.96
2019-01-04T07:56:05.101Z,95112.13
2019-01-04T07:58:35.723Z,95112.56
2019-01-04T08:01:06.065Z,95109.07
2019-01-04T08:03:36.926Z,95114.64
2019-01-04T08:06:08.181Z,95113.40
2019-01-04T08:08:38.807Z,95111.50
2019-01-04T08:11:09.217Z,95116.01
2019-01-04T08:13:39.841Z,95117.95
2019-01-04T08:16:10.257Z,95130.46
2019-01-04T08:18:40.657Z,95126.07
2019-01-04T08:21:11.027Z,95125.45
2019-01-04T08:23:41.930Z,95124.08
2019-01-04T08:26:12.209Z,95139.73
2019-01-04T08:28:42.600Z,95128.36
2019-01-04T08:31:13.735Z,95135.38
2019-01-04T08:33:44.975Z,95139.62
2019-01-04T08:36:15.272Z,95138.11
2019-01-04T08:38:46.269Z,95135.80
2019-01-04T08:41:16.677Z,95133.91
2019-01-04T08:43:47.321Z,95136.77
2019-01-04T08:46:18.049Z,95130.23
2019-01-04T08:48:48.325Z,95129.38
2019-01-04T08:51:18.999Z,95124.97
2019-01-04T08:54:17.910Z,95127.66
2019-01-04T08:56:48.232Z,95117.52
2019-01-04T08:59:18.881Z,95124.64
2019-01-04T09:01:49.762Z,95121.02
2019-01-04T09:04:20.041Z,95113.83
2019-01-04T09:06:50.553Z,95112.58
2019-01-04T09:09:21.098Z,95112.50
2019-01-04T09:11:51.428Z,95114.81
2019-01-04T09:14:21.950Z,95101.70
2019-01-04T09:16:52.350Z,95104.22
2019-01-04T09:19:23.250Z,95096.84
2019-01-04T09:21:53.792Z,95100.83
2019-01-04T09:24:24.138Z,95103.06
2019-01-04T09:26:54.816Z,95106.02
2019-01-04T09:29:25.417Z,95106.12
2019-01-04T09:31:56.025Z,95101.88
2019-01-04T09:34:26.780Z,95103.27
2019-01-04T09:36:57.801Z,95101.05
2019-01-04T09:39:29.891Z,95101.21
2019-01-04T09:42:20.492Z,95106.71
2019-01-04T09:44:51.233Z,95110.35
2019-01-04T09:47:21.846Z,95107.36
2019-01-04T09:49:52.179Z,95112.62
2019-01-04T09:52:23.159Z,95118.14
2019-01-04T09:54:53.546Z,95111.95
2019-01-04T09:57:23.977Z,95115.61
2019-01-04T09:59:54.630Z,95114.72
2019-01-04T10:02:25.321Z,95113.53
2019-01-04T10:04:55.640Z,95109.50
2019-01-04T10:07:26.601Z,95116.14
2019-01-04T10:09:56.947Z,95110.83
2019-01-04T10:12:28.254Z,95114.48
2019-01-04T10:14:59.546Z,95112.69
2019-01-04T10:17:30.255Z,95113.53
2019-01-04T10:20:00.798Z,95107.31
2019-01-04T10:22:31.702Z,95112.25
2019-01-04T10:25:02.007Z,95109.83
2019-01-04T10:27:33.096Z,95106.69
2019-01-04T10:30:04.044Z,95105.73
2019-01-04T10:32:34.641Z,95111.36
2019-01-04T10:35:10.511Z,95111.20
2019-01-04T10:37:40.181Z,95111.86
2019-01-04T10:40:11.142Z,95106.55
2019-01-04T10:42:42.076Z,95112.48
2019-01-04T10:45:12.861Z,95107.44
2019-01-04T10:47:43.190Z,95110.35
2019-01-04T10:50:13.726Z,95106.17
2019-01-04T10:52:44.187Z,95106.06
2019-01-04T10:55:14.682Z,95110.27
2019-01-04T10:57:45.751Z,95099.97
2019-01-04T11:00:16.196Z,95105.31
2019-01-04T11:02:46.727Z,95102.41
2019-01-04T11:05:17.403Z,95110.07
2019-01-04T11:07:47.730Z,95106.39
2019-01-04T11:10:18.005Z,95106.09
2019-01-04T11:12:48.566Z,95099.66
2019-01-04T11:15:18.836Z,95096.66
2019-01-04T11:17:49.524Z,95098.33
2019-01-04T11:20:51.417Z,95101.16
2019-01-04T11:24:18.015Z,95112.70
2019-01-04T11:27:08.826Z,95109.95
2019-01-04T11:29:57.582Z,95105.52
2019-01-04T11:33:10.882Z,95113.85
2019-01-04T11:36:16.347Z,95117.30
2019-01-04T11:39:13.078Z,95126.27
2019-01-04T11:42:26.754Z,95121.10
2019-01-04T11:45:23.036Z,95118.75
2019-01-04T11:48:32.215Z,95121.98
2019-01-04T11:51:12.194Z,95127.66
2019-01-04T11:53:43.075Z,95122.02
2019-01-04T11:56:13.530Z,95122.72
2019-01-04T11:58:44.115Z,95126.50
2019-01-04T12:01:14.400Z,95126.81
2019-01-04T12:04:02.117Z,95125.98
2019-01-04T12:06:32.701Z,95132.44
2019-01-04T12:09:03.257Z,95131.22
2019-01-04T12:11:33.534Z,95137.67
2019-01-04T12:14:04.646Z,95134.50
2019-01-04T12:16:35.226Z,95133.83
2019-01-04T12:19:05.841Z,95135.39
2019-01-04T12:21:36.503Z,95133.05
2019-01-04T12:24:08.653Z,95134.11
2019-01-04T12:26:38.942Z,95131.10
2019-01-04T12:29:09.698Z,95126.76
2019-01-04T12:31:40.058Z,95121.66
2019-01-04T12:34:16.498Z,95128.28
2019-01-04T12:36:43.213Z,95124.73
2019-01-04T12:39:13.491Z,95133.48
2019-01-04T12:41:44.111Z,95140.67
2019-01-04T12:44:15.000Z,95139.44
2019-01-04T12:46:45.310Z,95136.09
2019-01-04T12:49:15.825Z,95138.27
2019-01-04T12:51:46.567Z,95140.59
2019-01-04T12:54:16.940Z,95144.72
2019-01-04T12:56:47.251Z,95148.08
2019-01-04T12:59:18.173Z,95153.46
2019-01-04T13:01:48.460Z,95157.17
2019-01-04T13:04:19.174Z,95160.33
2019-01-04T13:06:49.467Z,95166.11
2019-01-04T13:09:19.843Z,95166.28
2019-01-04T13:11:50.476Z,95163.84
2019-01-04T13:14:21.259Z,95172.05
2019-01-04T13:16:51.972Z,95174.55
2019-01-04T13:19:25.789Z,95161.83
2019-01-04T13:21:54.898Z,95156.53
2019-01-04T13:24:25.178Z,95165.67
2019-01-04T13:26:55.899Z,95166.61
2019-01-04T13:29:26.689Z,95164.10
2019-01-04T13:31:56.968Z,95162.59
2019-01-04T13:34:27.683Z,95160.37
2019-01-04T13:36:58.028Z,95161.25
2019-01-04T13:39:28.646Z,95158.88
2019-01-04T13:41:59.172Z,95158.61
2019-01-04T13:44:29.887Z,95158.20
2019-01-04T13:47:00.456Z,95152.13
2019-01-04T13:49:30.915Z,95151.55
2019-01-04T13:52:01.477Z,95150.96
2019-01-04T13:54:32.162Z,95149.31
2019-01-04T13:57:02.931Z,95155.53
2019-01-04T13:59:33.335Z,95155.02
2019-01-04T14:02:04.096Z,95159.42
2019-01-04T14:04:34.455Z,95159.42
2019-01-04T14:07:04.819Z,95164.03
2019-01-04T14:09:35.150Z,95157.59
2019-01-04T14:12:05.769Z,95164.51
2019-01-04T14:14:36.435Z,95166.39
2019-01-04T14:17:06.888Z,95171.34
2019-01-04T14:19:37.551Z,95168.05
2019-01-04T14:22:08.148Z,95167.98
2019-01-04T14:24:38.442Z,95167.06
2019-01-04T14:27:09.051Z,95166.03
2019-01-04T14:29:39.694Z,95168.00
2019-01-04T14:32:10.095Z,95165.55
2019-01-04T14:34:40.831Z,95169.31
2019-01-04T14:37:11.238Z,95176.39
2019-01-04T14:39:41.583Z,95176.56
2019-01-04T14:42:11.873Z,95177.74
2019-01-04T14:44:42.632Z,95173.19
2019-01-04T14:47:13.039Z,95174.11
2019-01-04T14:49:43.646Z,95177.61
2019-01-04T14:52:14.514Z,95179.33
2019-01-04T14:54:45.274Z,95175.97
2019-01-04T14:57:15.882Z,95175.47
2019-01-04T14:59:46.398Z,95177.24
2019-01-04T15:02:17.127Z,95177.14
2019-01-04T15:04:47.505Z,95169.34
2019-01-04T15:07:18.157Z,95173.41
2019-01-04T15:09:48.496Z,95182.31
2019-01-04T15:12:18.798Z,95180.61
2019-01-04T15:14:49.613Z,95181.54
2019-01-04T15:17:20.131Z,95180.43
2019-01-04T15:19:50.431Z,95181.64
2019-01-04T15:22:21.328Z,95181.67
2019-01-04T15:24:52.038Z,95177.89
2019-01-04T15:27:22.349Z,95174.86
2019-01-04T15:29:53.072Z,95178.81
2019-01-04T15:32:23.838Z,95184.11
2019-01-04T15:34:54.112Z,95184.95
2019-01-04T15:37:24.431Z,95184.84
2019-01-04T15:39:55.281Z,95185.64
2019-01-04T15:42:25.567Z,94876.80
2019-01-04T15:44:56.195Z,95182.64
2019-01-04T15:47:26.601Z,95185.86
2019-01-04T15:49:57.030Z,95185.17
2019-01-04T15:52:27.932Z,95183.70
2019-01-04T15:54:58.294Z,95184.75
2019-01-04T15:57:28.606Z,95185.20
2019-01-04T15:59:59.509Z,95188.55
2019-01-04T16:02:29.809Z,95194.14
2019-01-04T16:05:00.136Z,95195.81
2019-01-04T16:07:30.902Z,95194.75
2019-01-04T16:10:01.514Z,95202.55
2019-01-04T16:12:31.896Z,95206.75
2019-01-04T16:15:03.038Z,95211.84
2019-01-04T16:17:33.351Z,95211.22
2019-01-04T16:20:04.212Z,95214.36
2019-01-04T16:22:34.899Z,95208.11
2019-01-04T16:25:05.733Z,95203.17
2019-01-04T16:27:36.412Z,95207.03
2019-01-04T16:30:08.934Z,95197.96
2019-01-04T16:32:39.247Z,95199.76
2019-01-04T16:35:09.661Z,95200.11
2019-01-04T16:37:40.370Z,95202.19
2019-01-04T16:40:10.847Z,94899.14
2019-01-04T16:42:41.455Z,95194.94
2019-01-04T16:45:12.530Z,95194.81
2019-01-04T16:47:42.868Z,95195.28
2019-01-04T16:50:13.305Z,95205.51
2019-01-04T16:52:43.667Z,95201.56
2019-01-04T16:55:14.314Z,95201.23
2019-01-04T16:57:44.912Z,95200.00
2019-01-04T17:00:15.415Z,95190.69
2019-01-04T17:02:46.082Z,95195.38
2019-01-04T17:05:16.559Z,95237.69
2019-01-04T17:07:47.200Z,95200.33
2019-01-04T17:10:17.615Z,95196.93
2019-01-04T17:12:49.661Z,95194.28
2019-01-04T17:15:20.345Z,95200.48
2019-01-04T17:17:50.659Z,95200.12
2019-01-04T17:20:21.175Z,95208.44
2019-01-04T17:22:51.891Z,95200.44
2019-01-04T17:25:22.491Z,95195.78
2019-01-04T17:27:52.790Z,95191.04
2019-01-04T17:30:23.720Z,95186.41
2019-01-04T17:32:54.270Z,95188.92
2019-01-04T17:35:24.554Z,95199.13
2019-01-04T17:37:55.240Z,95200.34
2019-01-04T17:40:25.773Z,95191.46
2019-01-04T17:42:56.062Z,95195.89
2019-01-04T17:45:27.384Z,95196.06
2019-01-04T17:47:57.801Z,95199.58
2019-01-04T17:50:28.258Z,95200.25
2019-01-04T17:52:58.978Z,95210.09
2019-01-04T17:55:29.354Z,95203.83
2019-01-04T17:57:59.648Z,95201.83
2019-01-04T18:00:30.459Z,95189.97
2019-01-04T18:03:01.100Z,95197.72
2019-01-04T18:05:32.351Z,95194.75
2019-01-04T18:08:04.001Z,95193.94
2019-01-04T18:10:34.384Z,95197.50
2019-01-04T18:13:04.804Z,95195.72
2019-01-04T18:15:35.382Z,95197.63
2019-01-04T18:18:05.762Z,95199.53
2019-01-04T18:20:36.186Z,95209.91
2019-01-04T18:23:06.938Z,95212.83
2019-01-04T18:25:37.610Z,95221.09
2019-01-04T18:28:07.952Z,95228.56
2019-01-04T18:30:38.407Z,95217.75
2019-01-04T18:33:08.811Z,95211.19
2019-01-04T18:35:41.232Z,95224.88
2019-01-04T18:38:12.574Z,95243.03
2019-01-04T18:40:43.258Z,95240.62
2019-01-04T18:43:13.570Z,95231.31
2019-01-04T18:45:43.912Z,95222.69
2019-01-04T18:48:14.488Z,95227.22
2019-01-04T18:50:44.880Z,95227.13
2019-01-04T18:53:15.180Z,95228.16
2019-01-04T18:55:45.915Z,95232.26
2019-01-04T18:58:16.257Z,95228.60
2019-01-04T19:00:46.648Z,95228.95
2019-01-04T19:03:16.988Z,95231.95
2019-01-04T19:05:47.288Z,95235.03
2019-01-04T19:08:18.002Z,95232.85
2019-01-04T19:10:48.538Z,95234.83
2019-01-04T19:13:18.943Z,95234.74
2019-01-04T19:15:49.742Z,95228.54
2019-01-04T19:18:20.368Z,95227.70
2019-01-04T19:20:50.768Z,95235.37
2019-01-04T19:23:21.803Z,95233.05
2019-01-04T19:25:52.458Z,95228.89
2019-01-04T19:28:23.149Z,95234.52
2019-01-04T19:30:53.675Z,95235.55
2019-01-04T19:33:24.023Z,95241.44
2019-01-04T19:35:54.752Z,95245.64
2019-01-04T19:38:25.496Z,95240.62
2019-01-04T19:40:55.875Z,95238.88
2019-01-04T19:43:26.839Z,95237.60
2019-01-04T19:45:57.604Z,95238.91
2019-01-04T19:48:28.972Z,95248.94
2019-01-04T19:50:59.517Z,95245.30
2019-01-04T19:53:31.154Z,95243.55
2019-01-04T19:56:01.928Z,95250.67
2019-01-04T19:58:32.293Z,95256.52
2019-01-04T20:01:09.838Z,95238.47
2019-01-04T20:03:40.234Z,95241.77
2019-01-04T20:07:14.841Z,95251.03
2019-01-04T20:10:52.178Z,95248.55
2019-01-04T20:14:49.071Z,95245.56
2019-01-04T20:17:41.137Z,95254.64
2019-01-04T20:20:33.368Z,95250.13
2019-01-04T20:23:31.704Z,95246.99
2019-01-04T20:26:20.025Z,95254.98
2019-01-04T20:29:15.091Z,95247.64
2019-01-04T20:32:02.908Z,95244.34
2019-01-04T20:35:02.710Z,95249.07
2019-01-04T20:38:01.825Z,95255.16
2019-01-04T20:40:50.212Z,95244.41
2019-01-04T20:43:42.370Z,95236.02
2019-01-04T20:46:30.873Z,95238.37
2019-01-04T20:49:36.200Z,95245.16
2019-01-04T20:52:18.372Z,95248.39
2019-01-04T20:55:05.824Z,95239.82
2019-01-04T20:57:55.113Z,95244.57
2019-01-04T21:00:53.755Z,95241.62
2019-01-04T21:03:47.433Z,95256.27
2019-01-04T21:06:35.779Z,95260.34
2019-01-04T21:09:24.128Z,95258.09
2019-01-04T21:12:22.452Z,95248.22
2019-01-04T21:15:11.066Z,95250.59
2019-01-04T21:18:00.289Z,95253.37
2019-01-04T21:21:02.244Z,95253.91
2019-01-04T21:24:00.491Z,95252.45
2019-01-04T21:26:48.630Z,95239.27
2019-01-04T21:29:43.178Z,95241.34
2019-01-04T21:32:35.529Z,95242.12
2019-01-04T21:35:25.079Z,95236.86
2019-01-04T21:38:16.291Z,95238.41
2019-01-04T21:41:04.540Z,95237.13
2019-01-04T21:43:53.842Z,95230.43
2019-01-04T21:46:41.983Z,95234.02
2019-01-04T21:49:30.502Z,95230.14
2019-01-04T21:52:35.083Z,95222.61
2019-01-04T21:55:27.554Z,95225.05
2019-01-04T21:58:13.387Z,95213.95
2019-01-04T22:01:01.763Z,95204.63
2019-01-04T22:03:49.830Z,95196.32
2019-01-04T22:06:45.660Z,95193.44
2019-01-04T22:09:33.748Z,95190.77
2019-01-04T22:12:29.200Z,95193.67
2019-01-04T22:15:36.492Z,95196.02
2019-01-04T22:18:25.576Z,95186.38
2019-01-04T22:21:15.152Z,95187.19
2019-01-04T22:24:03.823Z,95181.17
2019-01-04T22:27:02.146Z,95179.95
2019-01-04T22:29:54.718Z,95176.72
2019-01-04T22:32:45.008Z,95172.41
2019-01-04T22:35:40.850Z,95167.86
2019-01-04T22:38:30.062Z,95168.53
2019-01-04T22:41:25.737Z,95170.83
2019-01-04T22:44:33.914Z,95160.59
2019-01-04T22:47:38.992Z,95152.89
2019-01-04T22:50:27.033Z,95147.28
2019-01-04T22:53:23.641Z,95148.23
2019-01-04T22:56:13.327Z,95151.28
2019-01-04T22:59:01.473Z,95163.23
2019-01-04T23:01:57.058Z,95157.73
2019-01-04T23:04:45.671Z,95157.45
2019-01-04T23:07:34.895Z,95154.96
2019-01-04T23:10:43.063Z,95163.06
2019-01-04T23:13:23.084Z,95168.09
2019-01-04T23:16:11.323Z,95160.28
2019-01-04T23:19:07.095Z,95158.63
2019-01-04T23:22:29.142Z,95165.56
2019-01-04T23:25:24.405Z,95169.09
2019-01-04T23:28:13.702Z,95162.76
2019-01-04T23:31:03.262Z,95157.70
2019-01-04T23:34:08.385Z,95162.14
2019-01-04T23:37:02.958Z,95161.92
2019-01-04T23:39:51.617Z,95158.84
2019-01-04T23:42:56.378Z,95154.10
2019-01-04T23:45:44.732Z,95150.10
2019-01-04T23:48:52.548Z,95145.47
2019-01-04T23:51:42.060Z,95134.63
2019-01-04T23:54:28.373Z,95131.73
2019-01-04T23:57:23.709Z,95127.58
